createdAt,value
2022-10-13T00:03:46.314Z,18.8
2022-10-13T00:09:38.937Z,20.1
2022-10-13T00:15:30.338Z,20.5
2022-10-13T00:21:21.782Z,22.1
2022-10-13T00:27:13.713Z,21.6
2022-10-13T00:33:05.672Z,22.9
2022-10-13T00:39:08.307Z,22.9
2022-10-13T00:44:58.488Z,23.2
2022-10-13T00:50:50.348Z,24.1
2022-10-13T00:56:43.093Z,21.5
2022-10-13T01:02:32.876Z,20.5
2022-10-13T01:08:23.610Z,20.1
2022-10-13T01:14:14.312Z,18.7
2022-10-13T01:20:05.690Z,22.1
2022-10-13T01:25:57.027Z,23.6
2022-10-13T01:31:48.994Z,23.5
2022-10-13T01:37:37.444Z,23.1
2022-10-13T01:43:29.721Z,23.7
2022-10-13T01:49:20.381Z,22.9
2022-10-13T01:55:13.011Z,25.3
2022-10-13T02:01:05.005Z,23.5
2022-10-13T02:06:56.538Z,24.4
2022-10-13T02:12:46.458Z,24.6
2022-10-13T02:18:37.305Z,24.8
2022-10-13T02:24:29.778Z,23.9
2022-10-13T02:30:20.443Z,24.2
2022-10-13T02:36:11.643Z,27.1
2022-10-13T02:42:02.365Z,24.5
2022-10-13T02:47:53.345Z,23.7
2022-10-13T02:53:44.459Z,25.5
2022-10-13T02:59:36.783Z,24.4
2022-10-13T03:05:27.861Z,23.6
2022-10-13T03:11:18.699Z,40.7
2022-10-13T03:17:17.340Z,29
2022-10-13T03:23:11.625Z,26.4
2022-10-13T03:29:02.453Z,25.5
2022-10-13T03:35:00.896Z,25.4
2022-10-13T03:40:51.159Z,23.8
2022-10-13T03:46:42.872Z,24.5
2022-10-13T03:52:35.625Z,24.7
2022-10-13T03:58:26.847Z,24.2
2022-10-13T04:04:18.749Z,24
2022-10-13T04:10:14.689Z,24.2
2022-10-13T04:16:04.995Z,22.9
2022-10-13T04:21:58.909Z,24.6
2022-10-13T04:27:55.682Z,23.7
2022-10-13T04:33:59.656Z,24.6
2022-10-13T04:39:50.776Z,26.2
2022-10-13T04:45:41.624Z,25.8
2022-10-13T04:51:32.315Z,24.8
2022-10-13T04:57:24.730Z,24.8
2022-10-13T05:03:16.384Z,23.8
2022-10-13T05:09:07.922Z,23
2022-10-13T05:15:10.598Z,24.6
2022-10-13T05:21:01.954Z,23
2022-10-13T05:26:54.278Z,23.9
2022-10-13T05:32:55.883Z,25.1
2022-10-13T05:38:50.626Z,24.9
2022-10-13T05:44:54.500Z,24.1
2022-10-13T05:50:55.454Z,24.5
2022-10-13T05:56:46.406Z,23.3
2022-10-13T06:02:37.230Z,24.6
2022-10-13T06:08:28.741Z,24.4
2022-10-13T06:14:20.671Z,24.3
2022-10-13T06:20:14.746Z,24.1
2022-10-13T06:26:05.705Z,25.1
2022-10-13T06:32:00.085Z,25.3
2022-10-13T06:37:50.302Z,25.7
2022-10-13T06:43:47.496Z,24.8
2022-10-13T06:49:41.195Z,24.9
2022-10-13T06:55:37.240Z,25
2022-10-13T07:01:31.314Z,24.7
2022-10-13T07:07:23.610Z,24.1
2022-10-13T07:19:13.000Z,25.2
2022-10-13T07:25:04.585Z,26.3
2022-10-13T07:30:57.169Z,25.9
2022-10-13T07:36:49.032Z,24.8
2022-10-13T07:43:05.437Z,25.2
2022-10-13T07:49:00.344Z,23.7
2022-10-13T07:54:55.700Z,24.7
2022-10-13T08:01:01.164Z,23.9
2022-10-13T08:07:00.257Z,23.9
2022-10-13T08:13:03.465Z,24.1
2022-10-13T08:19:09.157Z,24.8
2022-10-13T12:22:38.028Z,6.8
2022-10-13T12:35:32.285Z,6.6
2022-10-13T12:41:24.314Z,6.6
2022-10-13T12:47:27.873Z,6.5
2022-10-13T13:29:47.486Z,7.8
2022-10-13T13:35:41.611Z,7.9
2022-10-13T13:41:43.201Z,8.5
2022-10-13T13:47:35.554Z,9
2022-10-13T13:53:28.276Z,9
2022-10-13T13:59:39.582Z,9.4
2022-10-13T14:05:34.030Z,8.5
2022-10-13T14:11:27.170Z,9.1
2022-10-13T14:17:19.365Z,9.5
2022-10-13T14:23:11.214Z,10.9
2022-10-13T14:29:07.210Z,12.6
2022-10-13T14:35:08.422Z,12.3
2022-10-13T14:41:00.959Z,13.3
2022-10-13T14:46:53.530Z,13.5
2022-10-13T14:52:45.344Z,13.1
2022-10-13T15:05:00.943Z,14
2022-10-13T15:11:13.772Z,15.9
2022-10-13T15:17:08.491Z,15.7
2022-10-13T15:23:07.776Z,21.8
2022-10-13T15:29:06.956Z,18.2
2022-10-13T15:35:20.033Z,13.3
2022-10-13T15:41:15.968Z,13.3
2022-10-13T15:47:22.016Z,15.5
2022-10-13T15:53:12.685Z,15
2022-10-13T15:59:14.841Z,15.5
2022-10-13T16:05:11.672Z,14.7
2022-10-13T16:11:04.406Z,14.7
2022-10-13T16:17:03.954Z,15.3
2022-10-13T16:29:38.924Z,14.1
2022-10-13T16:35:34.266Z,14.3
2022-10-13T16:41:44.617Z,17.4
2022-10-13T16:48:08.169Z,16.3
2022-10-13T16:54:29.260Z,14.6
2022-10-13T17:00:34.236Z,16.7
2022-10-13T17:06:32.399Z,15.3
2022-10-13T17:12:29.645Z,15.4
2022-10-13T17:18:21.674Z,16.3
2022-10-13T17:24:22.558Z,15.9
2022-10-13T17:30:38.090Z,16.7
2022-10-13T17:36:39.602Z,17.7
2022-10-13T17:42:49.915Z,17.7
2022-10-13T17:48:41.097Z,17.3
2022-10-13T17:54:35.183Z,19.9
2022-10-13T18:00:34.059Z,20.6
2022-10-13T18:06:44.731Z,21.2
2022-10-13T18:12:38.813Z,18.6
2022-10-13T18:18:39.183Z,19.4
2022-10-13T18:24:31.002Z,15.5
2022-10-13T18:30:29.731Z,13.9
2022-10-13T18:36:20.340Z,10.4
2022-10-13T18:42:16.160Z,10.6
2022-10-13T18:48:06.878Z,8.5
2022-10-13T18:54:03.150Z,7
2022-10-13T18:59:55.134Z,5.6
2022-10-13T19:05:48.260Z,6.6
2022-10-13T19:11:39.188Z,8.3
2022-10-13T19:17:36.056Z,9.5
2022-10-13T19:23:37.566Z,7.6
2022-10-13T19:29:35.307Z,6.1
2022-10-13T19:35:26.948Z,6.3
2022-10-13T19:41:21.909Z,6.2
2022-10-13T19:47:16.027Z,6.8
2022-10-13T19:53:22.140Z,6.9
2022-10-13T19:59:26.696Z,7
2022-10-13T20:05:23.310Z,8.5
2022-10-13T20:11:25.921Z,7.3
2022-10-13T20:17:16.014Z,7.6
2022-10-13T20:23:15.459Z,6
2022-10-13T20:29:09.117Z,6.3
2022-10-13T20:35:15.940Z,7.1
2022-10-13T20:41:11.351Z,8.4
2022-10-13T20:47:05.692Z,8.6
2022-10-13T20:53:14.457Z,9.8
2022-10-13T20:59:27.410Z,10.9
2022-10-13T21:05:21.885Z,10.8
2022-10-13T21:11:14.726Z,11.3
2022-10-13T21:17:15.773Z,10.3
2022-10-13T21:23:05.869Z,9.1
2022-10-13T21:28:56.675Z,9
2022-10-13T21:35:10.020Z,9.3
2022-10-13T21:41:05.048Z,8.3
2022-10-13T21:46:56.589Z,7.9
2022-10-13T21:52:50.935Z,7.8
2022-10-13T21:58:58.583Z,8.2
2022-10-13T22:04:55.880Z,9.3
2022-10-13T22:10:47.423Z,9
2022-10-13T22:16:48.514Z,11
2022-10-13T22:22:42.121Z,12
2022-10-13T22:28:46.771Z,11.8
2022-10-13T22:34:51.483Z,13.4
2022-10-13T22:40:44.252Z,14.4
2022-10-13T22:46:37.429Z,14.5
2022-10-13T22:52:33.035Z,13.9
2022-10-13T22:58:30.100Z,13.5
2022-10-13T23:04:22.274Z,13.5
2022-10-13T23:10:27.733Z,13.6
2022-10-13T23:16:20.437Z,13.9
2022-10-13T23:22:12.827Z,14.1
2022-10-13T23:28:02.525Z,13.4
2022-10-13T23:33:56.663Z,11.9
2022-10-13T23:39:56.180Z,11.5
2022-10-13T23:45:53.239Z,10.6
2022-10-13T23:51:44.715Z,10
2022-10-13T23:57:41.389Z,9.9
